Time;durP1;ratioP1;P1;durP2;ratioP2;P2;SDS_P1;SDS_P2;PMS_P1;PMS_P2;Temp;Humidity;BMP_temperature;BMP_pressure;BME280_temperature;BME280_humidity;BME280_pressure;Samples;Min_cycle;Max_cycle;Signal;HPM_P1;HPM_P2
2023/09/01 00:02:13;;;;;;;;;;;22.30;1.00;;;;;;4995974;28;20382;-61
2023/09/01 00:04:50;;;;;;;;;;;22.20;1.00;;;;;;4995803;28;19925;-62
2023/09/01 00:07:16;;;;;;;;;;;22.20;1.00;;;;;;4995785;28;19926;-62
2023/09/01 00:09:43;;;;;;;;;;;22.20;1.00;;;;;;4995896;28;20301;-62
2023/09/01 00:12:10;;;;;;;;;;;22.20;1.00;;;;;;4995911;28;20344;-62
2023/09/01 00:14:37;;;;;;;;;;;22.20;1.00;;;;;;4995485;28;19925;-62
2023/09/01 00:17:04;;;;;;;;;;;22.20;1.00;;;;;;4995682;28;19926;-62
2023/09/01 00:19:30;;;;;;;;;;;22.20;1.00;;;;;;4995574;28;19965;-62
2023/09/01 00:21:57;;;;;;;;;;;22.20;1.00;;;;;;5432082;23;20069;-62
2023/09/01 00:24:24;;;;;;;;;;;22.20;1.00;;;;;;4995008;28;20029;-62
2023/09/01 00:26:51;;;;;;;;;;;22.20;1.00;;;;;;4995649;28;19933;-62
2023/09/01 00:29:18;;;;;;;;;;;22.20;1.00;;;;;;4995512;28;20416;-63
2023/09/01 00:31:44;;;;;;;;;;;22.20;1.00;;;;;;4976804;28;20262;-63
2023/09/01 00:34:11;;;;;;;;;;;22.20;1.00;;;;;;4977897;28;20456;-63
2023/09/01 00:36:38;;;;;;;;;;;22.20;1.00;;;;;;4976071;28;19930;-63
2023/09/01 00:39:05;;;;;;;;;;;22.20;1.00;;;;;;4971871;28;19984;-63
2023/09/01 00:41:32;;;;;;;;;;;22.20;1.00;;;;;;4969645;28;19953;-63
2023/09/01 00:43:59;;;;;;;;;;;22.20;1.00;;;;;;4977701;28;19980;-63
2023/09/01 00:46:26;;;;;;;;;;;22.20;1.00;;;;;;4977701;28;19930;-63
2023/09/01 00:48:55;;;;;;;;;;;22.10;1.00;;;;;;4995217;28;20349;-63
2023/09/01 00:51:23;;;;;;;;;;;22.10;1.00;;;;;;4994885;28;19926;-63
2023/09/01 00:53:50;;;;;;;;;;;22.10;1.00;;;;;;5189633;23;19989;-63
2023/09/01 00:56:18;;;;;;;;;;;22.10;1.00;;;;;;4942181;29;19933;-63
2023/09/01 00:58:45;;;;;;;;;;;22.10;1.00;;;;;;4939636;29;20409;-63
2023/09/01 01:01:12;;;;;;;;;;;22.10;1.00;;;;;;4939755;29;20302;-63
2023/09/01 01:03:40;;;;;;;;;;;22.10;1.00;;;;;;4956149;29;19934;-63
2023/09/01 01:06:10;;;;;;;;;;;22.10;1.00;;;;;;4933772;29;20195;-63
2023/09/01 01:08:53;;;;;;;;;;;22.10;1.00;;;;;;4936720;29;19934;-63
2023/09/01 01:11:30;;;;;;;;;;;22.10;1.00;;;;;;4938768;29;19978;-63
2023/09/01 01:13:59;;;;;;;;;;;22.10;1.00;;;;;;4955916;29;19935;-63
2023/09/01 01:16:28;;;;;;;;;;;22.10;1.00;;;;;;4955777;28;20433;-63
2023/09/01 01:18:56;;;;;;;;;;;22.10;1.00;;;;;;4938644;29;19962;-63
2023/09/01 01:21:28;;;;;;;;;;;22.10;1.00;;;;;;4938594;29;19976;-63
2023/09/01 01:23:55;;;;;;;;;;;22.10;1.00;;;;;;4984566;23;19934;-63
2023/09/01 01:26:23;;;;;;;;;;;22.10;1.00;;;;;;4953402;28;20017;-63
2023/09/01 01:28:50;;;;;;;;;;;22.10;1.00;;;;;;4974539;28;20394;-63
2023/09/01 01:31:18;;;;;;;;;;;22.00;1.00;;;;;;4975048;28;19972;-63
2023/09/01 01:33:50;;;;;;;;;;;22.10;1.00;;;;;;4974549;28;20111;-60
2023/09/01 01:36:21;;;;;;;;;;;22.10;1.00;;;;;;4957571;28;19930;-62
2023/09/01 01:38:59;;;;;;;;;;;22.10;1.00;;;;;;4957452;28;20350;-62
2023/09/01 01:41:52;;;;;;;;;;;22.10;1.00;;;;;;4957517;28;19973;-62
2023/09/01 01:44:24;;;;;;;;;;;22.00;1.00;;;;;;4953576;28;19926;-62
2023/09/01 01:46:51;;;;;;;;;;;22.00;1.00;;;;;;4957129;28;20350;-62
2023/09/01 01:49:18;;;;;;;;;;;22.00;1.00;;;;;;4951018;29;19927;-62
2023/09/01 01:51:45;;;;;;;;;;;22.00;1.00;;;;;;4973011;28;19932;-62
2023/09/01 01:54:12;;;;;;;;;;;22.00;1.00;;;;;;4972275;28;19914;-62
2023/09/01 01:56:39;;;;;;;;;;;22.00;1.00;;;;;;4956762;28;19993;-62
2023/09/01 01:59:06;;;;;;;;;;;22.00;1.00;;;;;;4957122;28;20022;-62
2023/09/01 02:01:33;;;;;;;;;;;22.00;1.00;;;;;;4974273;28;19929;-62
2023/09/01 02:04:00;;;;;;;;;;;22.00;1.00;;;;;;4974149;28;19937;-62
2023/09/01 02:06:27;;;;;;;;;;;22.00;1.00;;;;;;4974173;28;20555;-62
2023/09/01 02:08:53;;;;;;;;;;;22.00;1.00;;;;;;4956697;28;20410;-62
2023/09/01 02:11:20;;;;;;;;;;;22.00;1.00;;;;;;4974221;28;19930;-62
2023/09/01 02:13:47;;;;;;;;;;;22.00;1.00;;;;;;4973941;28;20017;-62
2023/09/01 02:16:14;;;;;;;;;;;22.00;1.00;;;;;;4956848;28;19926;-62
2023/09/01 02:18:41;;;;;;;;;;;22.00;1.00;;;;;;4956529;28;20454;-62
2023/09/01 02:21:08;;;;;;;;;;;22.00;1.00;;;;;;4956508;28;19957;-62
2023/09/01 02:23:35;;;;;;;;;;;21.90;1.00;;;;;;4956325;28;19932;-62
2023/09/01 02:26:04;;;;;;;;;;;22.00;1.00;;;;;;5084562;23;19926;-63
2023/09/01 02:28:31;;;;;;;;;;;21.90;1.00;;;;;;4976738;28;20393;-62
2023/09/01 02:30:58;;;;;;;;;;;21.90;1.00;;;;;;4993137;28;19984;-63
2023/09/01 02:33:25;;;;;;;;;;;21.90;1.00;;;;;;4988526;28;19925;-63
2023/09/01 02:36:11;;;;;;;;;;;21.90;1.00;;;;;;4983813;28;19926;-63
2023/09/01 02:38:38;;;;;;;;;;;21.90;1.00;;;;;;4956376;28;19973;-63
2023/09/01 02:41:05;;;;;;;;;;;21.90;1.00;;;;;;4956411;28;20290;-62
2023/09/01 02:43:32;;;;;;;;;;;21.90;1.00;;;;;;4948268;28;19936;-63
2023/09/01 02:45:58;;;;;;;;;;;21.90;1.00;;;;;;4959831;28;20032;-63
2023/09/01 02:48:26;;;;;;;;;;;21.90;1.00;;;;;;4959514;28;19941;-63
2023/09/01 02:50:52;;;;;;;;;;;21.90;1.00;;;;;;4957495;28;19993;-62
2023/09/01 02:53:19;;;;;;;;;;;21.90;1.00;;;;;;4955857;28;20029;-63
2023/09/01 02:58:36;;;;;;;;;;;21.90;1.00;;;;;;4972449;28;20332;-62
2023/09/01 03:01:07;;;;;;;;;;;21.90;1.00;;;;;;4988499;28;19981;-62
2023/09/01 03:03:35;;;;;;;;;;;21.90;1.00;;;;;;4972060;28;19930;-60
2023/09/01 03:06:05;;;;;;;;;;;21.90;1.00;;;;;;4972153;28;19997;-62
2023/09/01 03:08:32;;;;;;;;;;;21.90;1.00;;;;;;4972113;28;19926;-62
2023/09/01 03:10:59;;;;;;;;;;;21.90;1.00;;;;;;4973404;28;19997;-62
2023/09/01 03:13:26;;;;;;;;;;;21.90;1.00;;;;;;4972039;28;19933;-62
2023/09/01 03:15:54;;;;;;;;;;;21.90;1.00;;;;;;4972231;28;20385;-62
2023/09/01 03:18:22;;;;;;;;;;;21.90;1.00;;;;;;4972232;28;20001;-62
2023/09/01 03:20:55;;;;;;;;;;;21.80;1.00;;;;;;4973335;28;19927;-62
2023/09/01 03:23:22;;;;;;;;;;;21.80;1.00;;;;;;4971770;28;20401;-62
2023/09/01 03:25:54;;;;;;;;;;;21.80;1.00;;;;;;4972066;28;19926;-61
2023/09/01 03:30:56;;;;;;;;;;;21.80;1.00;;;;;;4930952;29;20013;-63
2023/09/01 03:33:23;;;;;;;;;;;21.80;1.00;;;;;;4935822;29;19927;-64
2023/09/01 03:35:49;;;;;;;;;;;21.80;1.00;;;;;;4942762;29;20350;-62
2023/09/01 03:38:17;;;;;;;;;;;21.80;1.00;;;;;;4970165;28;20330;-63
2023/09/01 03:40:44;;;;;;;;;;;21.80;1.00;;;;;;4970719;28;19930;-62
2023/09/01 03:43:10;;;;;;;;;;;21.80;1.00;;;;;;4955157;28;20351;-62
2023/09/01 03:45:37;;;;;;;;;;;21.80;1.00;;;;;;4954322;28;19934;-62
2023/09/01 03:48:04;;;;;;;;;;;21.80;1.00;;;;;;4968229;28;19935;-62
2023/09/01 03:50:33;;;;;;;;;;;21.80;1.00;;;;;;4969030;28;20297;-62
2023/09/01 03:53:01;;;;;;;;;;;21.70;1.00;;;;;;4968350;28;20013;-62
2023/09/01 03:55:28;;;;;;;;;;;21.70;1.00;;;;;;4968585;28;20010;-62
2023/09/01 03:57:54;;;;;;;;;;;21.70;1.00;;;;;;4968401;28;19926;-62
2023/09/01 04:00:22;;;;;;;;;;;21.70;1.00;;;;;;4968492;28;19927;-60
2023/09/01 04:02:50;;;;;;;;;;;21.70;1.00;;;;;;5167300;23;19981;-62
2023/09/01 04:05:17;;;;;;;;;;;21.70;1.00;;;;;;4973832;28;19930;-61
2023/09/01 04:07:44;;;;;;;;;;;21.70;1.00;;;;;;4975246;28;19930;-62
2023/09/01 04:10:11;;;;;;;;;;;21.70;1.00;;;;;;4965255;28;20346;-62
2023/09/01 04:12:38;;;;;;;;;;;21.70;1.00;;;;;;4946740;28;19935;-63
2023/09/01 04:15:06;;;;;;;;;;;21.70;1.00;;;;;;4947587;28;19980;-62
2023/09/01 04:17:35;;;;;;;;;;;21.60;1.00;;;;;;4951774;29;19938;-62
2023/09/01 04:20:05;;;;;;;;;;;21.60;1.00;;;;;;4965807;28;19927;-63
2023/09/01 04:22:32;;;;;;;;;;;21.60;1.00;;;;;;4948072;28;19938;-62
2023/09/01 04:24:59;;;;;;;;;;;21.60;1.00;;;;;;4949711;28;19974;-64
2023/09/01 04:27:26;;;;;;;;;;;21.60;1.00;;;;;;4969146;28;19926;-61
2023/09/01 04:29:54;;;;;;;;;;;21.60;1.00;;;;;;4965551;28;19926;-63
2023/09/01 04:32:35;;;;;;;;;;;21.60;1.00;;;;;;4955580;28;20346;-63
2023/09/01 04:35:02;;;;;;;;;;;21.60;1.00;;;;;;4973349;28;19930;-63
2023/09/01 04:37:29;;;;;;;;;;;21.60;1.00;;;;;;4960915;28;19927;-62
2023/09/01 04:39:56;;;;;;;;;;;21.60;1.00;;;;;;4955374;28;20450;-62
2023/09/01 04:42:23;;;;;;;;;;;21.60;1.00;;;;;;4956546;28;19933;-62
2023/09/01 04:44:50;;;;;;;;;;;21.60;1.00;;;;;;4963373;28;20409;-62
2023/09/01 04:47:17;;;;;;;;;;;21.60;1.00;;;;;;4975843;28;19926;-64
2023/09/01 04:49:43;;;;;;;;;;;21.60;1.00;;;;;;4968121;28;20164;-61
2023/09/01 04:52:11;;;;;;;;;;;21.60;1.00;;;;;;4954826;28;19927;-62
2023/09/01 04:54:37;;;;;;;;;;;21.50;1.00;;;;;;4960321;28;19926;-61
2023/09/01 04:57:04;;;;;;;;;;;21.60;1.00;;;;;;4965308;28;19993;-62
2023/09/01 04:59:32;;;;;;;;;;;21.50;1.00;;;;;;4973892;28;19926;-62
2023/09/01 05:01:59;;;;;;;;;;;21.50;1.00;;;;;;4991110;23;20024;-60
2023/09/01 05:04:26;;;;;;;;;;;21.50;1.00;;;;;;4974246;28;19926;-62
2023/09/01 05:06:53;;;;;;;;;;;21.50;1.00;;;;;;4976533;28;20033;-62
2023/09/01 05:09:21;;;;;;;;;;;21.50;1.00;;;;;;4994538;28;19926;-62
2023/09/01 05:11:48;;;;;;;;;;;21.50;1.00;;;;;;4994702;28;19988;-62
2023/09/01 05:14:16;;;;;;;;;;;21.50;1.00;;;;;;4958143;28;20008;-62
2023/09/01 05:16:43;;;;;;;;;;;21.50;1.00;;;;;;4974603;28;20375;-62
2023/09/01 05:19:10;;;;;;;;;;;21.50;1.00;;;;;;4974996;28;19938;-62
2023/09/01 05:21:37;;;;;;;;;;;21.50;1.00;;;;;;4973666;28;19954;-62
2023/09/01 05:24:04;;;;;;;;;;;21.50;1.00;;;;;;4973610;28;19926;-62
2023/09/01 05:26:30;;;;;;;;;;;21.50;1.00;;;;;;4974017;28;20329;-62
2023/09/01 05:28:57;;;;;;;;;;;21.50;1.00;;;;;;4990187;28;20074;-62
2023/09/01 05:31:24;;;;;;;;;;;21.50;1.00;;;;;;4973914;28;19926;-62
2023/09/01 05:33:51;;;;;;;;;;;21.50;1.00;;;;;;5233560;23;19977;-62
2023/09/01 05:36:18;;;;;;;;;;;21.50;1.00;;;;;;4956883;28;19930;-62
2023/09/01 05:38:44;;;;;;;;;;;21.50;1.00;;;;;;4969995;28;20406;-61
2023/09/01 05:41:12;;;;;;;;;;;21.50;1.00;;;;;;4956401;28;20017;-61
2023/09/01 05:43:38;;;;;;;;;;;21.50;1.00;;;;;;4974835;28;20282;-62
2023/09/01 05:46:06;;;;;;;;;;;21.50;1.00;;;;;;4964962;28;20374;-62
2023/09/01 05:48:34;;;;;;;;;;;21.50;1.00;;;;;;4957278;28;19926;-62
2023/09/01 05:51:01;;;;;;;;;;;21.50;1.00;;;;;;4956900;28;19926;-62
2023/09/01 05:53:28;;;;;;;;;;;21.50;1.00;;;;;;4974303;28;20021;-62
2023/09/01 05:55:55;;;;;;;;;;;21.50;1.00;;;;;;4974329;28;19968;-62
2023/09/01 05:58:22;;;;;;;;;;;21.50;1.00;;;;;;4974541;28;19926;-62
2023/09/01 06:00:49;;;;;;;;;;;21.50;1.00;;;;;;4974260;28;20001;-63
2023/09/01 06:03:16;;;;;;;;;;;21.50;1.00;;;;;;4974111;28;20302;-60
2023/09/01 06:08:47;;;;;;;;;;;21.50;1.00;;;;;;4953139;29;19950;-63
2023/09/01 06:11:15;;;;;;;;;;;21.40;1.00;;;;;;4954724;29;19927;-62
2023/09/01 06:13:42;;;;;;;;;;;21.40;1.00;;;;;;4954793;28;19934;-63
2023/09/01 06:16:09;;;;;;;;;;;21.40;1.00;;;;;;4966221;28;20378;-63
2023/09/01 06:18:36;;;;;;;;;;;21.50;1.00;;;;;;4974900;28;20345;-63
2023/09/01 06:21:03;;;;;;;;;;;21.40;1.00;;;;;;4975064;28;19988;-63
2023/09/01 06:23:29;;;;;;;;;;;21.40;1.00;;;;;;4974869;28;19929;-63
2023/09/01 06:25:56;;;;;;;;;;;21.40;1.00;;;;;;4975433;28;20009;-63
2023/09/01 06:28:23;;;;;;;;;;;21.50;1.00;;;;;;4974479;28;20382;-63
2023/09/01 06:30:50;;;;;;;;;;;21.40;1.00;;;;;;4974225;28;19953;-63
2023/09/01 06:33:17;;;;;;;;;;;21.40;1.00;;;;;;4973696;28;19937;-63
2023/09/01 06:35:43;;;;;;;;;;;21.40;1.00;;;;;;4973786;28;20329;-62
2023/09/01 06:41:03;;;;;;;;;;;21.40;1.00;;;;;;4969979;28;20036;-61
2023/09/01 06:43:30;;;;;;;;;;;21.40;1.00;;;;;;4973617;28;19959;-62
2023/09/01 06:45:57;;;;;;;;;;;21.40;1.00;;;;;;4963988;28;19926;-64
2023/09/01 06:48:24;;;;;;;;;;;21.40;1.00;;;;;;4950738;29;19937;-62
2023/09/01 06:50:51;;;;;;;;;;;21.40;1.00;;;;;;4935138;29;19934;-63
2023/09/01 06:53:17;;;;;;;;;;;21.40;1.00;;;;;;4934996;29;20014;-63
2023/09/01 06:55:47;;;;;;;;;;;21.50;1.00;;;;;;4935137;29;19954;-62
2023/09/01 06:58:14;;;;;;;;;;;21.40;1.00;;;;;;4934995;29;19930;-63
2023/09/01 07:00:41;;;;;;;;;;;21.40;1.00;;;;;;4934957;29;20014;-62
2023/09/01 07:03:08;;;;;;;;;;;21.40;1.00;;;;;;4934656;29;19973;-63
2023/09/01 07:05:35;;;;;;;;;;;21.40;1.00;;;;;;4933561;29;20352;-62
2023/09/01 07:08:02;;;;;;;;;;;21.40;1.00;;;;;;4935353;29;19933;-62
2023/09/01 07:10:29;;;;;;;;;;;21.40;1.00;;;;;;4954017;28;20037;-63
2023/09/01 07:12:57;;;;;;;;;;;21.40;1.00;;;;;;5216122;23;20145;-64
2023/09/01 07:15:24;;;;;;;;;;;21.40;1.00;;;;;;4992720;28;19957;-64
2023/09/01 07:17:50;;;;;;;;;;;21.40;1.00;;;;;;4992623;28;20016;-64
2023/09/01 07:20:17;;;;;;;;;;;21.50;1.00;;;;;;4992726;28;19933;-63
2023/09/01 07:22:44;;;;;;;;;;;21.40;1.00;;;;;;4992635;28;20397;-64
2023/09/01 07:25:13;;;;;;;;;;;21.50;1.00;;;;;;4984518;28;20347;-64
2023/09/01 07:27:40;;;;;;;;;;;21.50;1.00;;;;;;4992448;28;19929;-64
2023/09/01 07:30:08;;;;;;;;;;;21.50;1.00;;;;;;4992407;28;19926;-63
2023/09/01 07:32:35;;;;;;;;;;;21.50;1.00;;;;;;4992496;28;20382;-63
2023/09/01 07:35:03;;;;;;;;;;;21.50;1.00;;;;;;4992215;28;20432;-64
2023/09/01 07:37:30;;;;;;;;;;;21.50;1.00;;;;;;4992524;28;19932;-63
2023/09/01 07:39:56;;;;;;;;;;;21.50;1.00;;;;;;4992862;28;19926;-62
2023/09/01 07:42:23;;;;;;;;;;;21.50;1.00;;;;;;5181973;23;19942;-62
2023/09/01 07:44:50;;;;;;;;;;;21.50;1.00;;;;;;4995101;28;19933;-62
2023/09/01 07:47:17;;;;;;;;;;;21.50;1.00;;;;;;4976666;28;20024;-63
2023/09/01 07:49:44;;;;;;;;;;;21.50;1.00;;;;;;4976681;28;20342;-62
2023/09/01 07:52:11;;;;;;;;;;;21.50;1.00;;;;;;4976639;28;20342;-63
2023/09/01 07:54:38;;;;;;;;;;;21.50;1.00;;;;;;4976657;28;19927;-62
2023/09/01 07:57:04;;;;;;;;;;;21.50;1.00;;;;;;4976496;28;19941;-63
2023/09/01 07:59:31;;;;;;;;;;;21.50;1.00;;;;;;4976681;28;19926;-63
2023/09/01 08:01:58;;;;;;;;;;;21.50;1.00;;;;;;4976505;28;19937;-63
2023/09/01 08:04:24;;;;;;;;;;;21.50;1.00;;;;;;4976381;28;19934;-63
2023/09/01 08:06:51;;;;;;;;;;;21.50;1.00;;;;;;4976299;28;20020;-63
2023/09/01 08:09:18;;;;;;;;;;;21.50;1.00;;;;;;4976624;28;19927;-64
2023/09/01 08:14:33;;;;;;;;;;;21.60;1.00;;;;;;5552675;23;19926;-64
2023/09/01 08:17:00;;;;;;;;;;;21.50;1.00;;;;;;4995570;28;19925;-64
2023/09/01 08:19:27;;;;;;;;;;;21.50;1.00;;;;;;4995468;28;19926;-64
2023/09/01 08:21:55;;;;;;;;;;;21.60;1.00;;;;;;4995591;28;19936;-63
2023/09/01 08:24:21;;;;;;;;;;;21.60;1.00;;;;;;4995349;28;19952;-63
2023/09/01 08:26:48;;;;;;;;;;;21.50;1.00;;;;;;4995554;28;19933;-62
2023/09/01 08:29:16;;;;;;;;;;;21.60;1.00;;;;;;4995371;28;20309;-62
2023/09/01 08:31:43;;;;;;;;;;;21.50;1.00;;;;;;5003399;28;19953;-61
2023/09/01 08:34:10;;;;;;;;;;;21.60;1.00;;;;;;4995016;28;19926;-62
2023/09/01 08:36:37;;;;;;;;;;;21.60;1.00;;;;;;4995321;28;19925;-62
2023/09/01 08:39:07;;;;;;;;;;;21.60;1.00;;;;;;4995304;28;20036;-63
2023/09/01 08:41:33;;;;;;;;;;;21.60;1.00;;;;;;4995165;28;19980;-62
2023/09/01 08:44:04;;;;;;;;;;;21.60;1.00;;;;;;4995242;28;19979;-63
2023/09/01 08:46:31;;;;;;;;;;;21.60;1.00;;;;;;5071441;22;20314;-64
2023/09/01 08:48:58;;;;;;;;;;;21.60;1.00;;;;;;4994973;28;20402;-62
2023/09/01 08:51:25;;;;;;;;;;;21.60;1.00;;;;;;4994361;28;19926;-63
2023/09/01 08:53:52;;;;;;;;;;;21.60;1.00;;;;;;4994869;28;19933;-63
2023/09/01 08:56:18;;;;;;;;;;;21.60;1.00;;;;;;4994925;28;19948;-63
2023/09/01 08:58:47;;;;;;;;;;;21.60;1.00;;;;;;4995121;28;20023;-61
2023/09/01 09:01:15;;;;;;;;;;;21.60;1.00;;;;;;4995037;28;19989;-62
2023/09/01 09:03:42;;;;;;;;;;;21.60;1.00;;;;;;4995328;28;19929;-62
2023/09/01 09:06:13;;;;;;;;;;;21.60;1.00;;;;;;4995651;28;19950;-62
2023/09/01 09:08:40;;;;;;;;;;;21.60;1.00;;;;;;4991108;28;19926;-62
2023/09/01 09:11:13;;;;;;;;;;;21.60;1.00;;;;;;4991036;28;20021;-62
2023/09/01 09:13:40;;;;;;;;;;;21.60;1.00;;;;;;4994640;28;19926;-62
2023/09/01 09:19:06;;;;;;;;;;;21.60;1.00;;;;;;4935058;29;19953;-61
2023/09/01 09:21:33;;;;;;;;;;;21.60;1.00;;;;;;4936658;29;20495;-63
2023/09/01 09:24:01;;;;;;;;;;;21.60;1.00;;;;;;4936605;29;19961;-62
2023/09/01 09:26:31;;;;;;;;;;;21.60;1.00;;;;;;4935339;29;19931;-62
2023/09/01 09:29:06;;;;;;;;;;;21.60;1.00;;;;;;4936641;29;19973;-63
2023/09/01 09:31:36;;;;;;;;;;;21.60;1.00;;;;;;4936317;29;19941;-61
2023/09/01 09:34:16;;;;;;;;;;;21.60;1.00;;;;;;4936417;29;20022;-61
2023/09/01 09:36:44;;;;;;;;;;;21.60;1.00;;;;;;4940524;29;20024;-60
2023/09/01 09:39:41;;;;;;;;;;;21.60;1.00;;;;;;4940007;29;20017;-63
2023/09/01 09:42:08;;;;;;;;;;;21.60;1.00;;;;;;4931776;29;19974;-63
2023/09/01 09:44:34;;;;;;;;;;;21.70;1.00;;;;;;4936500;29;20009;-63
2023/09/01 09:47:09;;;;;;;;;;;21.60;1.00;;;;;;4936346;29;19930;-64
2023/09/01 09:49:38;;;;;;;;;;;21.60;1.00;;;;;;5030446;23;19926;-63
2023/09/01 09:52:07;;;;;;;;;;;21.70;1.00;;;;;;4975273;28;19927;-63
2023/09/01 09:54:35;;;;;;;;;;;21.70;1.00;;;;;;4974597;28;20297;-63
2023/09/01 09:57:05;;;;;;;;;;;21.70;1.00;;;;;;4974738;28;20307;-67
2023/09/01 09:59:33;;;;;;;;;;;21.70;1.00;;;;;;4974668;28;19930;-63
2023/09/01 10:02:04;;;;;;;;;;;21.70;1.00;;;;;;4974649;28;19926;-62
2023/09/01 10:04:33;;;;;;;;;;;21.70;1.00;;;;;;4974244;28;19927;-63
2023/09/01 10:07:00;;;;;;;;;;;21.60;1.00;;;;;;4974331;28;20028;-62
2023/09/01 10:09:28;;;;;;;;;;;21.70;1.00;;;;;;4974146;28;19926;-63
2023/09/01 10:11:55;;;;;;;;;;;21.70;1.00;;;;;;4974142;28;19933;-62
2023/09/01 10:14:23;;;;;;;;;;;21.70;1.00;;;;;;4973999;28;19926;-63
2023/09/01 10:16:50;;;;;;;;;;;21.70;1.00;;;;;;4974070;28;19926;-63
2023/09/01 10:19:19;;;;;;;;;;;21.70;1.00;;;;;;4974399;28;19932;-63
2023/09/01 10:21:46;;;;;;;;;;;21.70;1.00;;;;;;4974006;28;19981;-63
2023/09/01 10:24:14;;;;;;;;;;;21.70;1.00;;;;;;4973554;28;20398;-63
2023/09/01 10:26:40;;;;;;;;;;;21.70;1.00;;;;;;4973882;28;20329;-63
2023/09/01 10:29:07;;;;;;;;;;;21.70;1.00;;;;;;4973682;28;19926;-63
2023/09/01 10:31:36;;;;;;;;;;;21.70;1.00;;;;;;4973776;28;20345;-63
2023/09/01 10:34:02;;;;;;;;;;;21.70;1.00;;;;;;4973810;28;19926;-63
2023/09/01 10:36:29;;;;;;;;;;;21.70;1.00;;;;;;4973615;28;19930;-66
2023/09/01 10:39:03;;;;;;;;;;;21.70;1.00;;;;;;4973759;28;19926;-63
2023/09/01 10:41:46;;;;;;;;;;;21.70;1.00;;;;;;4973455;28;19926;-63
2023/09/01 10:44:12;;;;;;;;;;;21.70;1.00;;;;;;4973819;28;19926;-63
2023/09/01 10:46:39;;;;;;;;;;;21.70;1.00;;;;;;4973487;28;19965;-63
2023/09/01 10:49:19;;;;;;;;;;;21.70;1.00;;;;;;4974541;28;20338;-64
2023/09/01 10:51:46;;;;;;;;;;;21.70;1.00;;;;;;4973247;28;19926;-61
2023/09/01 10:54:16;;;;;;;;;;;21.70;1.00;;;;;;4973430;28;19925;-63
2023/09/01 10:56:56;;;;;;;;;;;21.70;1.00;;;;;;4973333;28;19926;-63
2023/09/01 10:59:30;;;;;;;;;;;21.70;1.00;;;;;;4973698;28;19926;-62
2023/09/01 11:02:36;;;;;;;;;;;21.70;1.00;;;;;;4973350;28;20453;-63
2023/09/01 11:05:03;;;;;;;;;;;21.70;1.00;;;;;;4913512;29;19938;-63
2023/09/01 11:07:50;;;;;;;;;;;21.70;1.00;;;;;;4913557;29;20010;-63
2023/09/01 11:10:26;;;;;;;;;;;21.70;1.00;;;;;;4950516;28;19935;-63
2023/09/01 11:12:53;;;;;;;;;;;21.70;1.00;;;;;;4973191;28;19926;-63
2023/09/01 11:15:20;;;;;;;;;;;21.70;1.00;;;;;;4974616;28;20158;-62
2023/09/01 11:17:49;;;;;;;;;;;21.70;1.00;;;;;;4976236;28;19926;-59
2023/09/01 11:23:13;;;;;;;;;;;21.80;1.00;;;;;;5447190;23;19972;-62
2023/09/01 11:25:41;;;;;;;;;;;21.80;1.00;;;;;;4996576;28;19945;-62
2023/09/01 11:28:11;;;;;;;;;;;21.80;1.00;;;;;;4996749;28;19972;-63
2023/09/01 11:30:37;;;;;;;;;;;21.80;1.00;;;;;;4996470;28;19926;-64
2023/09/01 11:33:11;;;;;;;;;;;21.80;1.00;;;;;;4996624;28;19925;-64
2023/09/01 11:35:38;;;;;;;;;;;21.80;1.00;;;;;;4996700;28;20024;-64
2023/09/01 11:38:04;;;;;;;;;;;21.80;1.00;;;;;;4996659;28;20460;-63
2023/09/01 11:40:32;;;;;;;;;;;21.80;1.00;;;;;;4996338;28;20048;-63
2023/09/01 11:42:59;;;;;;;;;;;21.80;1.00;;;;;;4996676;28;19926;-63
2023/09/01 11:45:26;;;;;;;;;;;21.80;1.00;;;;;;4996858;28;19930;-63
2023/09/01 11:47:53;;;;;;;;;;;21.80;1.00;;;;;;4979843;28;19926;-63
2023/09/01 11:50:20;;;;;;;;;;;21.80;1.00;;;;;;4995214;28;19972;-63
2023/09/01 11:55:37;;;;;;;;;;;21.80;1.00;;;;;;5086303;23;19937;-62
2023/09/01 11:58:04;;;;;;;;;;;21.90;1.00;;;;;;4957432;28;19926;-62
2023/09/01 12:00:40;;;;;;;;;;;21.90;1.00;;;;;;4957146;28;19926;-63
2023/09/01 12:03:07;;;;;;;;;;;21.90;1.00;;;;;;4957496;29;19926;-64
2023/09/01 12:05:35;;;;;;;;;;;21.90;1.00;;;;;;4957083;28;19981;-64
2023/09/01 12:08:03;;;;;;;;;;;21.90;1.00;;;;;;4957223;28;19934;-64
2023/09/01 12:10:30;;;;;;;;;;;21.90;1.00;;;;;;4956921;28;20454;-64
2023/09/01 12:13:03;;;;;;;;;;;21.80;1.00;;;;;;4956854;28;19933;-64
2023/09/01 12:15:29;;;;;;;;;;;21.90;1.00;;;;;;4956704;28;20338;-64
2023/09/01 12:17:56;;;;;;;;;;;21.90;1.00;;;;;;4956998;29;19970;-64
2023/09/01 12:20:23;;;;;;;;;;;21.90;1.00;;;;;;4956753;29;19950;-63
2023/09/01 12:22:50;;;;;;;;;;;21.90;1.00;;;;;;4956647;28;19968;-63
2023/09/01 12:28:12;;;;;;;;;;;21.90;1.00;;;;;;5106185;23;20445;-63
2023/09/01 12:30:39;;;;;;;;;;;21.90;1.00;;;;;;4995280;28;19956;-62
2023/09/01 12:33:05;;;;;;;;;;;21.90;1.00;;;;;;4995535;28;20279;-63
2023/09/01 12:35:32;;;;;;;;;;;21.90;1.00;;;;;;4995306;28;20054;-63
2023/09/01 12:37:59;;;;;;;;;;;21.90;1.00;;;;;;4995328;28;19936;-63
2023/09/01 12:40:26;;;;;;;;;;;21.90;1.00;;;;;;4995504;28;20036;-63
2023/09/01 12:42:53;;;;;;;;;;;21.90;1.00;;;;;;4994943;28;19934;-62
2023/09/01 12:45:19;;;;;;;;;;;21.90;1.00;;;;;;4995394;28;19933;-62
2023/09/01 12:47:46;;;;;;;;;;;21.90;1.00;;;;;;4995267;28;19926;-63
2023/09/01 12:50:13;;;;;;;;;;;22.00;1.00;;;;;;4994989;28;19930;-63
2023/09/01 12:52:40;;;;;;;;;;;22.00;1.00;;;;;;4995095;28;19930;-62
2023/09/01 12:55:06;;;;;;;;;;;22.00;1.00;;;;;;4994833;28;19933;-62
2023/09/01 12:57:33;;;;;;;;;;;22.00;1.00;;;;;;4993664;28;19926;-63
2023/09/01 13:00:00;;;;;;;;;;;22.00;1.00;;;;;;5229437;23;20295;-62
2023/09/01 13:02:27;;;;;;;;;;;22.00;1.00;;;;;;4975396;28;19954;-63
2023/09/01 13:04:54;;;;;;;;;;;22.00;1.00;;;;;;4975233;28;19927;-62
2023/09/01 13:07:21;;;;;;;;;;;22.00;1.00;;;;;;4975691;28;19981;-62
2023/09/01 13:09:48;;;;;;;;;;;22.00;1.00;;;;;;4975263;28;19972;-61
2023/09/01 13:12:16;;;;;;;;;;;22.00;1.00;;;;;;4975153;28;19926;-63
2023/09/01 13:14:43;;;;;;;;;;;22.00;1.00;;;;;;4975010;28;19932;-63
2023/09/01 13:17:10;;;;;;;;;;;22.00;1.00;;;;;;4975351;28;19988;-63
2023/09/01 13:19:37;;;;;;;;;;;22.00;1.00;;;;;;4975379;28;19926;-61
2023/09/01 13:22:03;;;;;;;;;;;22.00;1.00;;;;;;4975218;28;19926;-63
2023/09/01 13:24:30;;;;;;;;;;;22.00;1.00;;;;;;4975329;28;20375;-63
2023/09/01 13:26:57;;;;;;;;;;;22.00;1.00;;;;;;4975091;28;19926;-62
2023/09/01 13:29:24;;;;;;;;;;;22.00;1.00;;;;;;4975017;28;20401;-62
2023/09/01 13:31:50;;;;;;;;;;;22.00;1.00;;;;;;5146603;23;20298;-62
2023/09/01 13:34:17;;;;;;;;;;;22.10;1.00;;;;;;4975062;28;20386;-62
2023/09/01 13:36:44;;;;;;;;;;;22.10;1.00;;;;;;4974727;28;19933;-62
2023/09/01 13:39:11;;;;;;;;;;;22.10;1.00;;;;;;4974547;28;19926;-63
2023/09/01 13:41:37;;;;;;;;;;;22.10;1.00;;;;;;4974976;28;19961;-63
2023/09/01 13:44:04;;;;;;;;;;;22.10;1.00;;;;;;4974672;28;19926;-62
2023/09/01 13:46:31;;;;;;;;;;;22.10;1.00;;;;;;4974762;28;20021;-62
2023/09/01 13:48:59;;;;;;;;;;;22.10;1.00;;;;;;4974324;28;20441;-63
2023/09/01 13:51:27;;;;;;;;;;;22.10;1.00;;;;;;4974764;28;19926;-63
2023/09/01 13:53:56;;;;;;;;;;;22.10;1.00;;;;;;4974437;28;19933;-62
2023/09/01 13:56:23;;;;;;;;;;;22.10;1.00;;;;;;4973560;28;19937;-64
2023/09/01 13:58:50;;;;;;;;;;;22.10;1.00;;;;;;4967025;28;19955;-63
2023/09/01 14:01:41;;;;;;;;;;;22.10;1.00;;;;;;4964740;28;19926;-64
2023/09/01 14:04:08;;;;;;;;;;;22.10;1.00;;;;;;4968532;28;19926;-62
2023/09/01 14:06:35;;;;;;;;;;;22.20;1.00;;;;;;4974164;28;19933;-63
2023/09/01 14:09:04;;;;;;;;;;;22.20;1.00;;;;;;4966736;28;20025;-63
2023/09/01 14:11:31;;;;;;;;;;;22.20;1.00;;;;;;4974221;28;20404;-63
2023/09/01 14:13:57;;;;;;;;;;;22.20;1.00;;;;;;4974156;28;20453;-63
2023/09/01 14:16:24;;;;;;;;;;;22.20;1.00;;;;;;4974155;28;19926;-63
2023/09/01 14:18:58;;;;;;;;;;;22.20;1.00;;;;;;4974442;28;19930;-63
2023/09/01 14:21:25;;;;;;;;;;;22.20;1.00;;;;;;4974164;28;19926;-64
2023/09/01 14:23:51;;;;;;;;;;;22.20;1.00;;;;;;4982451;28;19976;-63
2023/09/01 14:26:18;;;;;;;;;;;22.20;1.00;;;;;;4974139;28;19957;-63
2023/09/01 14:28:45;;;;;;;;;;;22.20;1.00;;;;;;4974889;28;19991;-63
2023/09/01 14:31:13;;;;;;;;;;;22.20;1.00;;;;;;4969856;28;19926;-64
2023/09/01 14:33:42;;;;;;;;;;;22.20;1.00;;;;;;5721006;23;19929;-61
2023/09/01 14:36:14;;;;;;;;;;;22.20;1.00;;;;;;4977806;28;19937;-63
2023/09/01 14:38:41;;;;;;;;;;;22.30;1.00;;;;;;4958521;28;20382;-63
2023/09/01 14:41:08;;;;;;;;;;;22.30;1.00;;;;;;4971425;28;20025;-62
2023/09/01 14:43:34;;;;;;;;;;;22.30;1.00;;;;;;4989468;28;19925;-63
2023/09/01 14:46:03;;;;;;;;;;;22.30;1.00;;;;;;4971214;28;20406;-64
2023/09/01 14:48:30;;;;;;;;;;;22.30;1.00;;;;;;4958229;28;20420;-64
2023/09/01 14:50:56;;;;;;;;;;;22.30;1.00;;;;;;4988245;28;19926;-64
2023/09/01 14:53:24;;;;;;;;;;;22.30;1.00;;;;;;4987812;28;19926;-63
2023/09/01 14:55:51;;;;;;;;;;;22.30;1.00;;;;;;4993247;28;20321;-64
2023/09/01 14:58:17;;;;;;;;;;;22.30;1.00;;;;;;4993224;28;20035;-63
2023/09/01 15:00:44;;;;;;;;;;;22.30;1.00;;;;;;4992901;28;19930;-63
2023/09/01 15:03:11;;;;;;;;;;;22.30;1.00;;;;;;4984765;28;19926;-63